Time;durP1;ratioP1;P1;durP2;ratioP2;P2;SDS_P1;SDS_P2;PMS_P1;PMS_P2;Temp;Humidity;BMP_temperature;BMP_pressure;BME280_temperature;BME280_humidity;BME280_pressure;Samples;Min_cycle;Max_cycle;Signal;HPM_P1;HPM_P2
2022/07/13 00:00:30;;;;;;;0.00;0.00;;;;;;;;;;5065973;28;20135;-63
2022/07/13 00:02:55;;;;;;;0.00;0.00;;;;;;;;;;5066386;28;20496;-62
2022/07/13 00:05:20;;;;;;;0.00;0.00;;;;;;;;;;5066176;28;20028;-63
2022/07/13 00:07:45;;;;;;;0.00;0.00;;;;;;;;;;5067020;28;20542;-63
2022/07/13 00:10:11;;;;;;;0.00;0.00;;;;;;;;;;5066581;28;20793;-64
2022/07/13 00:12:37;;;;;;;0.00;0.00;;;;;;;;;;5066666;28;20020;-64
2022/07/13 00:15:02;;;;;;;0.00;0.00;;;;;;;;;;5064752;28;20020;-63
2022/07/13 00:17:27;;;;;;;0.00;0.00;;;;;;;;;;5064529;28;20024;-63
2022/07/13 00:19:52;;;;;;;0.00;0.00;;;;;;;;;;5065012;28;20016;-63
2022/07/13 00:22:18;;;;;;;0.00;0.00;;;;;;;;;;5066575;28;20044;-63
2022/07/13 00:24:43;;;;;;;0.00;0.00;;;;;;;;;;5065910;28;20439;-64
2022/07/13 00:27:08;;;;;;;0.00;0.00;;;;;;;;;;5065244;28;20040;-63
2022/07/13 00:29:33;;;;;;;0.00;0.00;;;;;;;;;;5066719;28;20032;-63
2022/07/13 00:31:58;;;;;;;0.00;0.00;;;;;;;;;;5066178;28;20033;-64
2022/07/13 00:34:24;;;;;;;0.00;0.00;;;;;;;;;;5065149;28;20107;-64
2022/07/13 00:36:49;;;;;;;0.00;0.00;;;;;;;;;;5065696;28;20081;-63
2022/07/13 00:39:14;;;;;;;0.00;0.00;;;;;;;;;;5066018;28;20073;-63
2022/07/13 00:41:46;;;;;;;0.00;0.00;;;;;;;;;;5066110;28;20661;-63
2022/07/13 00:44:12;;;;;;;0.00;0.00;;;;;;;;;;5064622;28;20075;-64
2022/07/13 00:46:39;;;;;;;0.00;0.00;;;;;;;;;;5066672;28;20049;-64
2022/07/13 00:49:04;;;;;;;0.00;0.00;;;;;;;;;;5064729;28;20043;-64
2022/07/13 00:51:30;;;;;;;0.00;0.00;;;;;;;;;;5066960;28;20017;-64
2022/07/13 00:53:55;;;;;;;0.00;0.00;;;;;;;;;;5065148;28;20028;-64
2022/07/13 00:56:21;;;;;;;0.00;0.00;;;;;;;;;;5074598;28;20052;-64
2022/07/13 00:58:47;;;;;;;0.00;0.00;;;;;;;;;;5066492;28;20024;-64
2022/07/13 01:01:12;;;;;;;0.00;0.00;;;;;;;;;;5066008;28;20024;-64
2022/07/13 01:03:38;;;;;;;0.00;0.00;;;;;;;;;;5065844;28;20017;-64
2022/07/13 01:06:04;;;;;;;0.00;0.00;;;;;;;;;;5065587;28;20094;-65
2022/07/13 01:08:30;;;;;;;0.00;0.00;;;;;;;;;;5066373;28;20359;-64
2022/07/13 01:10:56;;;;;;;0.00;0.00;;;;;;;;;;5067108;28;20031;-65
2022/07/13 01:13:22;;;;;;;0.00;0.00;;;;;;;;;;5069346;28;20020;-65
2022/07/13 01:15:47;;;;;;;0.00;0.00;;;;;;;;;;5067356;28;20055;-65
2022/07/13 01:18:12;;;;;;;0.00;0.00;;;;;;;;;;5067457;28;20024;-64
2022/07/13 01:20:38;;;;;;;0.00;0.00;;;;;;;;;;5067248;28;20103;-63
2022/07/13 01:23:07;;;;;;;0.00;0.00;;;;;;;;;;5066610;28;20103;-64
2022/07/13 01:25:32;;;;;;;0.00;0.00;;;;;;;;;;5066591;28;20029;-64
2022/07/13 01:27:57;;;;;;;0.00;0.00;;;;;;;;;;5067833;28;20037;-63
2022/07/13 01:30:23;;;;;;;0.00;0.00;;;;;;;;;;5066134;28;20557;-63
2022/07/13 01:32:49;;;;;;;1.95;0.28;;;;;;;;;;5067826;28;20099;-63
2022/07/13 01:35:15;;;;;;;0.00;0.00;;;;;;;;;;5065587;28;20080;-64
2022/07/13 01:37:41;;;;;;;0.00;0.00;;;;;;;;;;5067715;28;20507;-64
2022/07/13 01:40:06;;;;;;;0.00;0.00;;;;;;;;;;5071702;28;20359;-62
2022/07/13 01:42:32;;;;;;;0.00;0.00;;;;;;;;;;5068383;28;20081;-62
2022/07/13 01:44:58;;;;;;;0.00;0.00;;;;;;;;;;5066692;28;20028;-63
2022/07/13 01:47:24;;;;;;;0.00;0.00;;;;;;;;;;5068539;28;20492;-63
2022/07/13 01:49:49;;;;;;;0.00;0.00;;;;;;;;;;5067545;28;20058;-64
2022/07/13 01:52:14;;;;;;;0.00;0.00;;;;;;;;;;5068361;28;20025;-64
2022/07/13 01:54:39;;;;;;;0.00;0.00;;;;;;;;;;5065326;28;20340;-64
2022/07/13 01:57:04;;;;;;;0.00;0.00;;;;;;;;;;5067220;28;20032;-63
2022/07/13 01:59:30;;;;;;;0.00;0.00;;;;;;;;;;5066665;28;20017;-63
2022/07/13 02:01:55;;;;;;;0.00;0.00;;;;;;;;;;5066168;28;20758;-63
2022/07/13 02:04:20;;;;;;;0.00;0.00;;;;;;;;;;5066462;28;20100;-64
2022/07/13 02:06:45;;;;;;;0.00;0.00;;;;;;;;;;5066909;28;20091;-64
2022/07/13 02:09:11;;;;;;;0.00;0.00;;;;;;;;;;5066489;28;20031;-64
2022/07/13 02:11:36;;;;;;;0.00;0.00;;;;;;;;;;5067548;28;20435;-64
2022/07/13 02:14:01;;;;;;;0.00;0.00;;;;;;;;;;5067523;28;20048;-64
2022/07/13 02:16:26;;;;;;;0.00;0.00;;;;;;;;;;5072920;28;20471;-64
2022/07/13 02:18:51;;;;;;;0.00;0.00;;;;;;;;;;5071798;28;20025;-64
2022/07/13 02:21:17;;;;;;;0.00;0.00;;;;;;;;;;5065554;28;20078;-64
2022/07/13 02:23:42;;;;;;;0.00;0.00;;;;;;;;;;5066616;28;20021;-64
2022/07/13 02:26:07;;;;;;;0.00;0.00;;;;;;;;;;5065430;28;20388;-64
2022/07/13 02:28:33;;;;;;;0.00;0.00;;;;;;;;;;5069794;28;20032;-64
2022/07/13 02:30:58;;;;;;;0.00;0.00;;;;;;;;;;5065053;28;20080;-64
2022/07/13 02:33:23;;;;;;;0.00;0.00;;;;;;;;;;5067632;28;20024;-64
2022/07/13 02:35:49;;;;;;;0.00;0.00;;;;;;;;;;5065676;28;20073;-63
2022/07/13 02:38:14;;;;;;;0.00;0.00;;;;;;;;;;5066446;28;20461;-64
2022/07/13 02:40:39;;;;;;;0.00;0.00;;;;;;;;;;5067047;28;20100;-64
2022/07/13 02:43:05;;;;;;;0.00;0.00;;;;;;;;;;5066441;28;20028;-63
2022/07/13 02:45:30;;;;;;;0.00;0.00;;;;;;;;;;5069967;28;20337;-63
2022/07/13 02:47:56;;;;;;;0.00;0.00;;;;;;;;;;5067223;28;20517;-63
2022/07/13 02:50:21;;;;;;;0.00;0.00;;;;;;;;;;5064853;28;20024;-63
2022/07/13 02:52:46;;;;;;;0.00;0.00;;;;;;;;;;5067536;28;20032;-63
2022/07/13 02:55:11;;;;;;;0.00;0.00;;;;;;;;;;5067542;28;20078;-63
2022/07/13 02:57:37;;;;;;;0.00;0.00;;;;;;;;;;5074926;28;20094;-63
2022/07/13 03:00:03;;;;;;;0.00;0.00;;;;;;;;;;5070866;28;20082;-63
2022/07/13 03:02:29;;;;;;;0.00;0.00;;;;;;;;;;5071017;28;20112;-64
2022/07/13 03:04:54;;;;;;;0.00;0.00;;;;;;;;;;5069076;28;20115;-64
2022/07/13 03:07:19;;;;;;;0.00;0.00;;;;;;;;;;5070426;28;20107;-64
2022/07/13 03:09:44;;;;;;;0.00;0.00;;;;;;;;;;5074904;28;20026;-64
2022/07/13 03:12:10;;;;;;;0.00;0.00;;;;;;;;;;5069541;28;20466;-64
2022/07/13 03:14:35;;;;;;;0.00;0.00;;;;;;;;;;5074522;28;20063;-65
2022/07/13 03:17:00;;;;;;;0.00;0.00;;;;;;;;;;5072642;28;20025;-64
2022/07/13 03:19:26;;;;;;;0.00;0.00;;;;;;;;;;5076473;28;20040;-64
2022/07/13 03:21:51;;;;;;;0.00;0.00;;;;;;;;;;5074801;28;20016;-64
2022/07/13 03:24:16;;;;;;;0.00;0.00;;;;;;;;;;5069445;28;20025;-62
2022/07/13 03:26:41;;;;;;;0.00;0.00;;;;;;;;;;5073334;28;20020;-62
2022/07/13 03:29:07;;;;;;;0.00;0.00;;;;;;;;;;5069172;28;20032;-63
2022/07/13 03:31:32;;;;;;;0.00;0.00;;;;;;;;;;5052591;28;20421;-62
2022/07/13 03:33:58;;;;;;;0.00;0.00;;;;;;;;;;5070115;28;20441;-62
2022/07/13 03:36:23;;;;;;;0.00;0.00;;;;;;;;;;5068480;28;20492;-62
2022/07/13 03:38:48;;;;;;;0.00;0.00;;;;;;;;;;5068895;28;20044;-63
2022/07/13 03:41:13;;;;;;;0.00;0.00;;;;;;;;;;5068756;28;20671;-64
2022/07/13 03:43:39;;;;;;;0.00;0.00;;;;;;;;;;5070180;28;20017;-64
2022/07/13 03:46:04;;;;;;;0.00;0.00;;;;;;;;;;5069330;28;20499;-63
2022/07/13 03:48:29;;;;;;;0.32;0.32;;;;;;;;;;5070082;28;20461;-65
2022/07/13 03:50:54;;;;;;;0.00;0.00;;;;;;;;;;5068388;28;20020;-65
2022/07/13 03:53:20;;;;;;;0.00;0.00;;;;;;;;;;5069462;28;20025;-65
2022/07/13 03:55:45;;;;;;;0.00;0.00;;;;;;;;;;5067599;28;20052;-65
2022/07/13 03:58:11;;;;;;;0.00;0.00;;;;;;;;;;5069285;28;20028;-65
2022/07/13 04:00:36;;;;;;;0.00;0.00;;;;;;;;;;5067419;28;20029;-66
2022/07/13 04:03:02;;;;;;;0.00;0.00;;;;;;;;;;5068847;28;20024;-65
2022/07/13 04:05:27;;;;;;;0.00;0.00;;;;;;;;;;5065355;28;20086;-64
2022/07/13 04:07:52;;;;;;;0.00;0.00;;;;;;;;;;5069331;28;20389;-65
2022/07/13 04:10:18;;;;;;;0.00;0.00;;;;;;;;;;5067700;28;20020;-64
2022/07/13 04:12:44;;;;;;;0.00;0.00;;;;;;;;;;5068874;28;20065;-64
2022/07/13 04:15:09;;;;;;;0.00;0.00;;;;;;;;;;5067713;28;20008;-64
2022/07/13 04:17:34;;;;;;;0.00;0.00;;;;;;;;;;5068321;28;20079;-64
2022/07/13 04:20:00;;;;;;;0.00;0.00;;;;;;;;;;5067558;28;20024;-64
2022/07/13 04:22:25;;;;;;;0.00;0.00;;;;;;;;;;5069856;28;20082;-65
2022/07/13 04:24:50;;;;;;;0.00;0.00;;;;;;;;;;5068937;28;20021;-64
2022/07/13 04:27:15;;;;;;;0.00;0.00;;;;;;;;;;5073540;28;20111;-64
2022/07/13 04:29:41;;;;;;;0.00;0.00;;;;;;;;;;5069099;28;20262;-65
2022/07/13 04:32:06;;;;;;;0.00;0.00;;;;;;;;;;5067024;28;20032;-64
2022/07/13 04:34:31;;;;;;;0.00;0.00;;;;;;;;;;5067788;28;20107;-65
2022/07/13 04:36:56;;;;;;;0.00;0.00;;;;;;;;;;5067399;28;20408;-63
2022/07/13 04:39:22;;;;;;;1.15;1.15;;;;;;;;;;5069240;28;20263;-62
2022/07/13 04:41:47;;;;;;;0.00;0.00;;;;;;;;;;5067961;28;20046;-63
2022/07/13 04:44:12;;;;;;;0.00;0.00;;;;;;;;;;5067971;28;20107;-63
2022/07/13 04:46:37;;;;;;;0.52;0.52;;;;;;;;;;5067375;28;20115;-63
2022/07/13 04:49:03;;;;;;;0.00;0.00;;;;;;;;;;5067603;28;20161;-63
2022/07/13 04:51:28;;;;;;;0.00;0.00;;;;;;;;;;5066090;28;20427;-63
2022/07/13 04:53:53;;;;;;;0.00;0.00;;;;;;;;;;5068918;28;20426;-62
2022/07/13 04:56:18;;;;;;;0.00;0.00;;;;;;;;;;5065816;28;20631;-61
2022/07/13 04:58:43;;;;;;;0.10;0.10;;;;;;;;;;5068698;28;20024;-61
2022/07/13 05:01:09;;;;;;;0.00;0.00;;;;;;;;;;5065561;28;20061;-62
2022/07/13 05:03:34;;;;;;;0.00;0.00;;;;;;;;;;5067730;28;20031;-63
2022/07/13 05:06:00;;;;;;;0.00;0.00;;;;;;;;;;5067132;28;20390;-62
2022/07/13 05:08:25;;;;;;;0.00;0.00;;;;;;;;;;5067326;28;20037;-64
2022/07/13 05:10:51;;;;;;;0.00;0.00;;;;;;;;;;5067056;28;20024;-64
2022/07/13 05:13:16;;;;;;;0.00;0.00;;;;;;;;;;5067090;28;20382;-64
2022/07/13 05:15:41;;;;;;;0.00;0.00;;;;;;;;;;5066480;28;20016;-65
2022/07/13 05:18:07;;;;;;;0.00;0.00;;;;;;;;;;5065865;28;20029;-63
2022/07/13 05:20:32;;;;;;;0.00;0.00;;;;;;;;;;5066237;28;20021;-63
2022/07/13 05:22:57;;;;;;;0.00;0.00;;;;;;;;;;5066706;28;20025;-63
2022/07/13 05:25:22;;;;;;;0.00;0.00;;;;;;;;;;5067313;28;20024;-62
2022/07/13 05:27:48;;;;;;;0.00;0.00;;;;;;;;;;5066434;28;20465;-63
2022/07/13 05:30:13;;;;;;;0.00;0.00;;;;;;;;;;5066722;28;20183;-64
2022/07/13 05:32:38;;;;;;;0.00;0.00;;;;;;;;;;5048539;28;20027;-64
2022/07/13 05:35:04;;;;;;;0.00;0.00;;;;;;;;;;5067347;28;20472;-64
2022/07/13 05:37:29;;;;;;;4.03;3.88;;;;;;;;;;5066547;28;20552;-62
2022/07/13 05:39:54;;;;;;;0.00;0.00;;;;;;;;;;5073290;28;20020;-63
2022/07/13 05:42:20;;;;;;;0.00;0.00;;;;;;;;;;5066299;28;20104;-64
2022/07/13 05:44:45;;;;;;;0.00;0.00;;;;;;;;;;5066710;28;20020;-63
2022/07/13 05:47:10;;;;;;;0.10;0.10;;;;;;;;;;5067992;28;20032;-63
2022/07/13 05:49:35;;;;;;;0.00;0.00;;;;;;;;;;5071721;28;20289;-64
2022/07/13 05:52:00;;;;;;;0.00;0.00;;;;;;;;;;5067900;28;20032;-62
2022/07/13 05:54:26;;;;;;;0.00;0.00;;;;;;;;;;5067211;28;20024;-63
2022/07/13 05:56:51;;;;;;;0.00;0.00;;;;;;;;;;5065658;28;20046;-63
2022/07/13 05:59:16;;;;;;;0.00;0.00;;;;;;;;;;5072740;28;20024;-65
2022/07/13 06:01:42;;;;;;;0.00;0.00;;;;;;;;;;5064479;28;20099;-66
2022/07/13 06:04:07;;;;;;;0.00;0.00;;;;;;;;;;5066556;28;20060;-67
2022/07/13 06:06:32;;;;;;;0.00;0.00;;;;;;;;;;5065886;28;20109;-67
2022/07/13 06:08:57;;;;;;;0.00;0.00;;;;;;;;;;5066604;28;20041;-64
2022/07/13 06:11:22;;;;;;;0.00;0.00;;;;;;;;;;5065432;28;20040;-65
2022/07/13 06:13:48;;;;;;;0.00;0.00;;;;;;;;;;5073235;28;20031;-63
2022/07/13 06:16:13;;;;;;;0.00;0.00;;;;;;;;;;5068518;28;20034;-63
2022/07/13 06:18:38;;;;;;;0.00;0.00;;;;;;;;;;5065961;28;20020;-64
2022/07/13 06:21:04;;;;;;;0.00;0.00;;;;;;;;;;5068556;28;20759;-65
2022/07/13 06:23:29;;;;;;;0.00;0.00;;;;;;;;;;5069983;28;20024;-64
2022/07/13 06:25:54;;;;;;;0.00;0.00;;;;;;;;;;5070201;28;20027;-66
2022/07/13 06:28:19;;;;;;;0.00;0.00;;;;;;;;;;5066271;28;20042;-65
2022/07/13 06:30:45;;;;;;;0.00;0.00;;;;;;;;;;5069447;28;20016;-64
2022/07/13 06:33:10;;;;;;;0.00;0.00;;;;;;;;;;5069931;28;20024;-63
2022/07/13 06:35:35;;;;;;;0.00;0.00;;;;;;;;;;5070507;28;20032;-63
2022/07/13 06:38:00;;;;;;;0.00;0.00;;;;;;;;;;5072129;28;20021;-63
2022/07/13 06:40:26;;;;;;;0.00;0.00;;;;;;;;;;5070750;28;20078;-63
2022/07/13 06:42:51;;;;;;;0.00;0.00;;;;;;;;;;5069016;28;20027;-62
2022/07/13 06:45:16;;;;;;;0.00;0.00;;;;;;;;;;5070495;28;20036;-63
2022/07/13 06:47:42;;;;;;;0.00;0.00;;;;;;;;;;5069122;28;20382;-63
2022/07/13 06:50:08;;;;;;;0.90;0.90;;;;;;;;;;5070525;28;20016;-63
2022/07/13 06:52:33;;;;;;;0.00;0.00;;;;;;;;;;5069317;28;20067;-63
2022/07/13 06:54:58;;;;;;;0.10;0.10;;;;;;;;;;5070135;28;20481;-64
2022/07/13 06:57:24;;;;;;;2.00;1.90;;;;;;;;;;5068852;28;20032;-63
2022/07/13 06:59:49;;;;;;;0.00;0.00;;;;;;;;;;5068672;28;20405;-63
2022/07/13 07:02:14;;;;;;;0.30;0.30;;;;;;;;;;5069104;28;20062;-63
2022/07/13 07:04:39;;;;;;;0.00;0.00;;;;;;;;;;5070002;28;20025;-63
2022/07/13 07:07:05;;;;;;;0.00;0.00;;;;;;;;;;5069427;28;20020;-63
2022/07/13 07:09:30;;;;;;;1.00;0.95;;;;;;;;;;5069166;28;20025;-62
2022/07/13 07:11:55;;;;;;;0.00;0.00;;;;;;;;;;5069673;28;20031;-62
2022/07/13 07:14:21;;;;;;;0.00;0.00;;;;;;;;;;5068696;28;20255;-62
2022/07/13 07:16:46;;;;;;;0.00;0.00;;;;;;;;;;5075004;28;20026;-62
2022/07/13 07:19:11;;;;;;;0.00;0.00;;;;;;;;;;5068505;28;20306;-64
2022/07/13 07:21:37;;;;;;;0.00;0.00;;;;;;;;;;5069882;28;20099;-62
2022/07/13 07:24:02;;;;;;;0.00;0.00;;;;;;;;;;5068470;28;20111;-63
2022/07/13 07:26:30;;;;;;;0.00;0.00;;;;;;;;;;5068606;28;20036;-64
2022/07/13 07:28:55;;;;;;;0.00;0.00;;;;;;;;;;5070933;28;20038;-66
2022/07/13 07:31:20;;;;;;;0.00;0.00;;;;;;;;;;5075298;28;20025;-65
2022/07/13 07:33:46;;;;;;;0.00;0.00;;;;;;;;;;5075500;28;20031;-64
2022/07/13 07:36:11;;;;;;;0.00;0.00;;;;;;;;;;5068834;28;20278;-65
2022/07/13 07:38:36;;;;;;;0.10;0.10;;;;;;;;;;5068697;28;20285;-66
2022/07/13 07:41:01;;;;;;;0.20;0.20;;;;;;;;;;5069133;28;20016;-65
2022/07/13 07:43:26;;;;;;;0.00;0.00;;;;;;;;;;5068038;28;20477;-65
2022/07/13 07:45:52;;;;;;;0.10;0.10;;;;;;;;;;5070655;28;20469;-64
2022/07/13 07:48:17;;;;;;;0.30;0.30;;;;;;;;;;5067723;28;20443;-64
2022/07/13 07:50:42;;;;;;;0.20;0.20;;;;;;;;;;5070117;28;20032;-64
2022/07/13 07:53:08;;;;;;;0.05;0.05;;;;;;;;;;5066554;28;20270;-64
2022/07/13 07:55:33;;;;;;;0.43;0.43;;;;;;;;;;5069181;28;20047;-64
2022/07/13 07:57:58;;;;;;;0.00;0.00;;;;;;;;;;5049436;28;20531;-64
2022/07/13 08:00:26;;;;;;;0.00;0.00;;;;;;;;;;5067863;28;20027;-64
2022/07/13 08:02:52;;;;;;;0.00;0.00;;;;;;;;;;5072414;28;20016;-64
2022/07/13 08:05:18;;;;;;;0.35;0.35;;;;;;;;;;5068280;28;20024;-64
2022/07/13 08:07:44;;;;;;;0.00;0.00;;;;;;;;;;5067628;28;20030;-65
2022/07/13 08:10:10;;;;;;;0.00;0.00;;;;;;;;;;5067606;28;20478;-65
2022/07/13 08:12:35;;;;;;;0.00;0.00;;;;;;;;;;5069099;28;20020;-65
2022/07/13 08:15:00;;;;;;;0.00;0.00;;;;;;;;;;5072884;28;20025;-65
2022/07/13 08:17:26;;;;;;;0.00;0.00;;;;;;;;;;5070210;28;20067;-66
2022/07/13 08:19:51;;;;;;;0.00;0.00;;;;;;;;;;5067046;28;20497;-65
2022/07/13 08:22:16;;;;;;;0.00;0.00;;;;;;;;;;5067562;28;20271;-65
2022/07/13 08:24:41;;;;;;;0.00;0.00;;;;;;;;;;5066570;28;20328;-64
2022/07/13 08:27:07;;;;;;;0.00;0.00;;;;;;;;;;5068109;28;20101;-64
2022/07/13 08:29:32;;;;;;;0.00;0.00;;;;;;;;;;5066673;28;20119;-64
2022/07/13 08:31:57;;;;;;;0.00;0.00;;;;;;;;;;5068784;28;20035;-65
2022/07/13 08:39:50;;;;;;;0.45;0.45;;;;;;;;;;5067989;28;20035;-65
2022/07/13 08:42:16;;;;;;;0.05;0.05;;;;;;;;;;5067720;28;20043;-65
2022/07/13 08:44:41;;;;;;;1.45;0.95;;;;;;;;;;5067585;28;20023;-65
2022/07/13 08:47:07;;;;;;;0.00;0.00;;;;;;;;;;5067614;28;20082;-65
2022/07/13 08:49:32;;;;;;;0.00;0.00;;;;;;;;;;5067063;28;20024;-64
2022/07/13 08:51:58;;;;;;;0.00;0.00;;;;;;;;;;5067202;28;20074;-63
2022/07/13 08:54:23;;;;;;;0.00;0.00;;;;;;;;;;5065676;28;20077;-63
2022/07/13 08:56:49;;;;;;;0.00;0.00;;;;;;;;;;5066693;28;20466;-63
2022/07/13 08:59:14;;;;;;;0.00;0.00;;;;;;;;;;5066016;28;20051;-64
2022/07/13 09:01:39;;;;;;;0.00;0.00;;;;;;;;;;5065946;28;20527;-64
2022/07/13 09:07:10;;;;;;;0.00;0.00;;;;;;;;;;5065106;28;20650;-66
2022/07/13 09:09:38;;;;;;;0.00;0.00;;;;;;;;;;5067005;28;20020;-65
2022/07/13 09:12:17;;;;;;;0.00;0.00;;;;;;;;;;5064553;28;20515;-65
2022/07/13 09:14:52;;;;;;;0.00;0.00;;;;;;;;;;5065810;28;20047;-65
2022/07/13 09:17:31;;;;;;;0.10;0.10;;;;;;;;;;5065068;28;20025;-66
2022/07/13 09:19:58;;;;;;;0.00;0.00;;;;;;;;;;5065059;28;20023;-66
2022/07/13 09:22:23;;;;;;;0.00;0.00;;;;;;;;;;5062917;28;20032;-67
2022/07/13 09:24:50;;;;;;;0.00;0.00;;;;;;;;;;5065799;28;20032;-66
2022/07/13 09:27:16;;;;;;;0.20;0.20;;;;;;;;;;5065493;28;20033;-63
2022/07/13 09:29:42;;;;;;;0.00;0.00;;;;;;;;;;5065680;28;20091;-65
2022/07/13 09:32:08;;;;;;;0.00;0.00;;;;;;;;;;5066711;28;20033;-65
2022/07/13 09:34:47;;;;;;;0.95;0.52;;;;;;;;;;5065529;28;20074;-64
2022/07/13 09:37:13;;;;;;;0.65;0.65;;;;;;;;;;5065346;28;20032;-63
2022/07/13 09:39:57;;;;;;;0.70;0.70;;;;;;;;;;5065453;28;20131;-66
2022/07/13 09:42:27;;;;;;;0.05;0.05;;;;;;;;;;5065895;28;20408;-66
2022/07/13 09:47:47;;;;;;;0.00;0.00;;;;;;;;;;5066800;28;20078;-65
2022/07/13 09:50:13;;;;;;;0.28;0.28;;;;;;;;;;5067623;28;20020;-66
2022/07/13 09:52:38;;;;;;;0.43;0.43;;;;;;;;;;5062622;28;20171;-66
2022/07/13 09:55:06;;;;;;;0.00;0.00;;;;;;;;;;5064690;28;20513;-65
2022/07/13 09:57:33;;;;;;;0.15;0.15;;;;;;;;;;5065541;28;20551;-65
2022/07/13 09:59:59;;;;;;;0.00;0.00;;;;;;;;;;5065655;28;20025;-65
2022/07/13 10:02:24;;;;;;;0.30;0.30;;;;;;;;;;5065723;28;20107;-62
2022/07/13 10:04:51;;;;;;;0.43;0.43;;;;;;;;;;5065420;28;20079;-62
2022/07/13 10:07:16;;;;;;;0.00;0.00;;;;;;;;;;5064781;28;20049;-61
2022/07/13 10:09:42;;;;;;;1.85;0.55;;;;;;;;;;5065989;28;20051;-61
2022/07/13 10:12:08;;;;;;;0.20;0.20;;;;;;;;;;5068048;28;20016;-61
2022/07/13 10:14:34;;;;;;;0.20;0.20;;;;;;;;;;5066152;28;20040;-62
2022/07/13 10:17:05;;;;;;;0.00;0.00;;;;;;;;;;5066421;28;20025;-60
2022/07/13 10:19:31;;;;;;;0.10;0.10;;;;;;;;;;5063838;28;20040;-62
2022/07/13 10:22:03;;;;;;;0.13;0.13;;;;;;;;;;5064014;28;20016;-61
2022/07/13 10:24:28;;;;;;;0.32;0.32;;;;;;;;;;5064918;28;20112;-62
2022/07/13 10:27:13;;;;;;;1.00;0.43;;;;;;;;;;5066239;28;20104;-61
2022/07/13 10:29:47;;;;;;;0.43;0.43;;;;;;;;;;5065022;28;20513;-62
2022/07/13 10:32:15;;;;;;;0.00;0.00;;;;;;;;;;5063852;28;20031;-61
2022/07/13 10:35:00;;;;;;;0.10;0.10;;;;;;;;;;5064844;28;20048;-62
2022/07/13 10:37:26;;;;;;;0.45;0.45;;;;;;;;;;5065020;28;20104;-61
2022/07/13 10:40:21;;;;;;;0.00;0.00;;;;;;;;;;5065272;28;20023;-61
2022/07/13 10:43:03;;;;;;;0.30;0.30;;;;;;;;;;5044074;28;20024;-61
2022/07/13 10:48:07;;;;;;;0.52;0.38;;;;;;;;;;5064832;28;20034;-60
2022/07/13 10:50:45;;;;;;;0.20;0.20;;;;;;;;;;5063513;28;20047;-61
2022/07/13 10:53:10;;;;;;;0.00;0.00;;;;;;;;;;5064691;28;20025;-61
2022/07/13 10:55:36;;;;;;;0.13;0.13;;;;;;;;;;5066143;28;20290;-61
2022/07/13 10:58:23;;;;;;;1.95;1.85;;;;;;;;;;5046921;28;20036;-62
2022/07/13 11:00:48;;;;;;;0.28;0.28;;;;;;;;;;5065880;28;20020;-61
2022/07/13 11:03:31;;;;;;;0.00;0.00;;;;;;;;;;5064092;28;20058;-63
2022/07/13 11:06:25;;;;;;;0.00;0.00;;;;;;;;;;5063731;28;20037;-61
2022/07/13 11:09:06;;;;;;;0.50;0.50;;;;;;;;;;5060548;28;20032;-61
2022/07/13 11:11:31;;;;;;;0.00;0.00;;;;;;;;;;5066434;28;20040;-61
2022/07/13 11:13:56;;;;;;;0.65;0.65;;;;;;;;;;5062757;28;20021;-60
2022/07/13 11:16:53;;;;;;;0.00;0.00;;;;;;;;;;5065791;28;20037;-61
2022/07/13 11:19:39;;;;;;;0.30;0.20;;;;;;;;;;5021410;28;20452;-61
2022/07/13 11:22:08;;;;;;;0.00;0.00;;;;;;;;;;5065102;28;20104;-60
2022/07/13 11:27:28;;;;;;;0.00;0.00;;;;;;;;;;5066077;28;20039;-61
2022/07/13 11:29:57;;;;;;;0.00;0.00;;;;;;;;;;5067090;28;20037;-62
2022/07/13 11:32:22;;;;;;;0.00;0.00;;;;;;;;;;5069977;28;20025;-61
2022/07/13 11:34:48;;;;;;;0.20;0.20;;;;;;;;;;5069351;28;20048;-61
2022/07/13 11:37:13;;;;;;;0.00;0.00;;;;;;;;;;5068296;28;20652;-61
2022/07/13 11:39:38;;;;;;;0.00;0.00;;;;;;;;;;5068762;28;20032;-61
2022/07/13 11:42:07;;;;;;;1.77;0.63;;;;;;;;;;5069792;28;20504;-61
2022/07/13 11:44:34;;;;;;;0.38;0.38;;;;;;;;;;5050602;28;20016;-61
2022/07/13 11:47:01;;;;;;;1.02;0.55;;;;;;;;;;5064412;28;20056;-61
2022/07/13 11:49:29;;;;;;;0.00;0.00;;;;;;;;;;5067725;28;20810;-64
2022/07/13 11:51:55;;;;;;;0.38;0.38;;;;;;;;;;5066618;28;20052;-62
2022/07/13 11:54:21;;;;;;;0.55;0.32;;;;;;;;;;5068363;28;20060;-63
2022/07/13 11:56:47;;;;;;;12.93;0.70;;;;;;;;;;5065794;28;20031;-63
2022/07/13 11:59:12;;;;;;;1.45;0.80;;;;;;;;;;5066899;28;20024;-63
2022/07/13 12:01:38;;;;;;;0.00;0.00;;;;;;;;;;5063971;28;20019;-63
2022/07/13 12:04:06;;;;;;;0.40;0.40;;;;;;;;;;5067192;28;20177;-63
2022/07/13 12:06:31;;;;;;;0.20;0.20;;;;;;;;;;5047928;28;20040;-65
2022/07/13 12:08:56;;;;;;;0.75;0.75;;;;;;;;;;5066081;28;20109;-64
2022/07/13 12:11:22;;;;;;;0.00;0.00;;;;;;;;;;5065851;28;20373;-63
2022/07/13 12:13:48;;;;;;;0.00;0.00;;;;;;;;;;5068838;28;20024;-63
2022/07/13 12:16:16;;;;;;;0.17;0.17;;;;;;;;;;5064680;28;20020;-63
2022/07/13 12:19:02;;;;;;;0.00;0.00;;;;;;;;;;5066252;28;20074;-63
2022/07/13 12:21:28;;;;;;;0.00;0.00;;;;;;;;;;5064921;28;20032;-63
2022/07/13 12:23:53;;;;;;;0.10;0.10;;;;;;;;;;5066191;28;20051;-63
2022/07/13 12:26:19;;;;;;;0.10;0.10;;;;;;;;;;5068471;28;20036;-62
2022/07/13 12:28:44;;;;;;;0.13;0.13;;;;;;;;;;5065691;28;20033;-63
2022/07/13 12:31:09;;;;;;;0.00;0.00;;;;;;;;;;5065966;28;20028;-63
2022/07/13 12:33:45;;;;;;;0.00;0.00;;;;;;;;;;5062684;28;20032;-62
2022/07/13 12:36:11;;;;;;;0.00;0.00;;;;;;;;;;5066795;28;20024;-62
2022/07/13 12:38:51;;;;;;;0.30;0.30;;;;;;;;;;5066039;28;20023;-64
2022/07/13 12:41:26;;;;;;;4.68;0.32;;;;;;;;;;5065067;28;20023;-63
2022/07/13 12:43:55;;;;;;;0.57;0.22;;;;;;;;;;5062455;28;20013;-64
2022/07/13 12:46:20;;;;;;;0.00;0.00;;;;;;;;;;5065875;28;20027;-63
2022/07/13 12:48:46;;;;;;;0.00;0.00;;;;;;;;;;5065393;28;20032;-63
2022/07/13 12:51:12;;;;;;;0.00;0.00;;;;;;;;;;5065089;28;20278;-62
2022/07/13 12:54:03;;;;;;;0.00;0.00;;;;;;;;;;5065700;28;20024;-63
2022/07/13 12:56:44;;;;;;;0.00;0.00;;;;;;;;;;5058845;28;20089;-63
2022/07/13 12:59:10;;;;;;;0.00;0.00;;;;;;;;;;5065201;28;20116;-62
2022/07/13 13:01:36;;;;;;;0.03;0.03;;;;;;;;;;5064162;28;20020;-63
2022/07/13 13:04:07;;;;;;;0.00;0.00;;;;;;;;;;5065424;28;20059;-63
2022/07/13 13:06:32;;;;;;;0.00;0.00;;;;;;;;;;5063439;28;20084;-62
2022/07/13 13:09:01;;;;;;;0.00;0.00;;;;;;;;;;5065593;28;20856;-62
2022/07/13 13:11:26;;;;;;;0.00;0.00;;;;;;;;;;5063718;28;20036;-62
2022/07/13 13:13:51;;;;;;;0.33;0.30;;;;;;;;;;5063646;28;20044;-62
2022/07/13 13:16:17;;;;;;;0.00;0.00;;;;;;;;;;5062705;28;20278;-63
2022/07/13 13:18:42;;;;;;;0.00;0.00;;;;;;;;;;5064835;28;20017;-62
2022/07/13 13:21:07;;;;;;;0.00;0.00;;;;;;;;;;5064287;28;20289;-63
2022/07/13 13:23:33;;;;;;;0.00;0.00;;;;;;;;;;5064032;28;20147;-62
2022/07/13 13:25:58;;;;;;;0.00;0.00;;;;;;;;;;5065430;28;20294;-63
2022/07/13 13:28:23;;;;;;;0.00;0.00;;;;;;;;;;5064677;28;20175;-63
2022/07/13 13:30:49;;;;;;;0.00;0.00;;;;;;;;;;5066436;28;20813;-63
2022/07/13 13:33:15;;;;;;;0.33;0.33;;;;;;;;;;5064098;28;20099;-63
2022/07/13 13:35:41;;;;;;;0.00;0.00;;;;;;;;;;5064539;28;20333;-62
2022/07/13 13:38:06;;;;;;;0.00;0.00;;;;;;;;;;5064037;28;20102;-64
2022/07/13 13:40:32;;;;;;;0.00;0.00;;;;;;;;;;5064737;28;20025;-62
2022/07/13 13:42:57;;;;;;;0.00;0.00;;;;;;;;;;5063926;28;20580;-63
2022/07/13 13:45:22;;;;;;;0.10;0.10;;;;;;;;;;5063444;28;20143;-63
2022/07/13 13:47:48;;;;;;;0.00;0.00;;;;;;;;;;5065888;28;20270;-63
2022/07/13 13:50:13;;;;;;;0.10;0.10;;;;;;;;;;5064349;28;20050;-62
2022/07/13 13:52:38;;;;;;;0.00;0.00;;;;;;;;;;5065062;28;20028;-62
2022/07/13 13:55:04;;;;;;;0.00;0.00;;;;;;;;;;5066353;28;20047;-65
2022/07/13 13:57:29;;;;;;;0.00;0.00;;;;;;;;;;5065723;28;20166;-63
2022/07/13 13:59:55;;;;;;;0.00;0.00;;;;;;;;;;5065835;28;20045;-63
2022/07/13 14:02:21;;;;;;;10.73;1.83;;;;;;;;;;5064030;28;20070;-62
2022/07/13 14:04:46;;;;;;;0.00;0.00;;;;;;;;;;5065418;28;20108;-62
2022/07/13 14:07:11;;;;;;;0.00;0.00;;;;;;;;;;5064134;28;20096;-62
2022/07/13 14:09:37;;;;;;;0.00;0.00;;;;;;;;;;5065324;28;20029;-62
2022/07/13 14:12:02;;;;;;;0.00;0.00;;;;;;;;;;5062287;28;20048;-62
2022/07/13 14:14:27;;;;;;;0.00;0.00;;;;;;;;;;5060816;28;20025;-62
2022/07/13 14:16:53;;;;;;;0.00;0.00;;;;;;;;;;5065337;28;20048;-62
2022/07/13 14:19:18;;;;;;;0.00;0.00;;;;;;;;;;5060754;28;20349;-62
2022/07/13 14:21:43;;;;;;;0.37;0.37;;;;;;;;;;5060306;28;20028;-61
2022/07/13 14:24:08;;;;;;;0.00;0.00;;;;;;;;;;5060937;28;20363;-62
2022/07/13 14:26:34;;;;;;;0.00;0.00;;;;;;;;;;5061506;28;20271;-62
2022/07/13 14:28:59;;;;;;;28.73;2.17;;;;;;;;;;5067856;28;20024;-62
2022/07/13 14:31:24;;;;;;;0.00;0.00;;;;;;;;;;5062453;28;20105;-61
2022/07/13 14:33:50;;;;;;;0.15;0.15;;;;;;;;;;5064684;28;20747;-62
2022/07/13 14:36:21;;;;;;;0.00;0.00;;;;;;;;;;5062598;28;20033;-61
2022/07/13 14:38:48;;;;;;;0.00;0.00;;;;;;;;;;5063233;28;20454;-61
2022/07/13 14:41:14;;;;;;;0.50;0.50;;;;;;;;;;5060983;28;20024;-61
2022/07/13 14:43:39;;;;;;;0.08;0.08;;;;;;;;;;5063399;28;20016;-61
2022/07/13 14:46:04;;;;;;;0.00;0.00;;;;;;;;;;5064250;28;20052;-61
2022/07/13 14:48:32;;;;;;;0.10;0.10;;;;;;;;;;5064022;28;20332;-62
2022/07/13 14:50:58;;;;;;;0.08;0.08;;;;;;;;;;5066104;28;20025;-61
2022/07/13 14:53:23;;;;;;;0.20;0.20;;;;;;;;;;5067912;28;20116;-62
2022/07/13 14:55:48;;;;;;;0.47;0.47;;;;;;;;;;5069541;28;20049;-62